sensor_id;sensor_type;location;lat;lon;timestamp;temperature;humidity
76936;DHT22;65881;52.438;16.744;2023-06-04T00:00:36;9.40;58.70
76936;DHT22;65881;52.438;16.744;2023-06-04T00:03:02;9.40;60.00
76936;DHT22;65881;52.438;16.744;2023-06-04T00:05:28;9.40;59.70
76936;DHT22;65881;52.438;16.744;2023-06-04T00:07:53;9.40;60.20
76936;DHT22;65881;52.438;16.744;2023-06-04T00:10:19;9.40;60.30
76936;DHT22;65881;52.438;16.744;2023-06-04T00:12:45;9.40;60.10
76936;DHT22;65881;52.438;16.744;2023-06-04T00:15:12;9.30;60.10
76936;DHT22;65881;52.438;16.744;2023-06-04T00:17:38;9.20;60.90
76936;DHT22;65881;52.438;16.744;2023-06-04T00:20:03;9.20;59.70
76936;DHT22;65881;52.438;16.744;2023-06-04T00:22:29;9.20;59.60
76936;DHT22;65881;52.438;16.744;2023-06-04T00:24:55;9.20;60.70
76936;DHT22;65881;52.438;16.744;2023-06-04T00:27:20;9.20;60.50
76936;DHT22;65881;52.438;16.744;2023-06-04T00:29:46;9.20;61.30
76936;DHT22;65881;52.438;16.744;2023-06-04T00:32:12;9.20;61.80
76936;DHT22;65881;52.438;16.744;2023-06-04T00:34:37;9.20;62.60
76936;DHT22;65881;52.438;16.744;2023-06-04T00:37:03;9.00;62.40
76936;DHT22;65881;52.438;16.744;2023-06-04T00:39:29;8.90;63.20
76936;DHT22;65881;52.438;16.744;2023-06-04T00:41:55;8.90;63.00
76936;DHT22;65881;52.438;16.744;2023-06-04T00:44:21;8.90;62.20
76936;DHT22;65881;52.438;16.744;2023-06-04T00:46:50;8.80;62.40
76936;DHT22;65881;52.438;16.744;2023-06-04T00:49:16;8.70;61.60
76936;DHT22;65881;52.438;16.744;2023-06-04T00:51:42;8.70;61.40
76936;DHT22;65881;52.438;16.744;2023-06-04T00:54:08;8.70;60.80
76936;DHT22;65881;52.438;16.744;2023-06-04T00:56:37;8.60;61.30
76936;DHT22;65881;52.438;16.744;2023-06-04T00:59:05;8.60;61.20
76936;DHT22;65881;52.438;16.744;2023-06-04T01:07:09;8.60;62.20
76936;DHT22;65881;52.438;16.744;2023-06-04T01:09:36;8.60;62.90
76936;DHT22;65881;52.438;16.744;2023-06-04T01:12:06;8.60;63.30
76936;DHT22;65881;52.438;16.744;2023-06-04T01:14:33;8.60;63.80
76936;DHT22;65881;52.438;16.744;2023-06-04T01:17:06;8.60;64.80
76936;DHT22;65881;52.438;16.744;2023-06-04T01:22:04;8.60;65.40
76936;DHT22;65881;52.438;16.744;2023-06-04T01:24:37;8.60;65.40
76936;DHT22;65881;52.438;16.744;2023-06-04T01:27:06;8.50;65.30
76936;DHT22;65881;52.438;16.744;2023-06-04T01:29:33;8.40;65.20
76936;DHT22;65881;52.438;16.744;2023-06-04T01:32:01;8.40;65.70
76936;DHT22;65881;52.438;16.744;2023-06-04T01:34:27;8.30;66.10
76936;DHT22;65881;52.438;16.744;2023-06-04T01:36:53;8.20;66.20
76936;DHT22;65881;52.438;16.744;2023-06-04T01:39:19;8.10;67.30
76936;DHT22;65881;52.438;16.744;2023-06-04T01:41:48;8.10;67.50
76936;DHT22;65881;52.438;16.744;2023-06-04T01:44:14;8.10;67.70
76936;DHT22;65881;52.438;16.744;2023-06-04T01:46:40;8.00;68.10
76936;DHT22;65881;52.438;16.744;2023-06-04T01:49:06;7.90;68.50
76936;DHT22;65881;52.438;16.744;2023-06-04T01:51:32;7.80;68.30
76936;DHT22;65881;52.438;16.744;2023-06-04T01:53:58;7.80;68.50
76936;DHT22;65881;52.438;16.744;2023-06-04T01:56:23;7.80;68.90
76936;DHT22;65881;52.438;16.744;2023-06-04T01:58:50;7.70;68.90
76936;DHT22;65881;52.438;16.744;2023-06-04T02:01:17;7.60;69.00
76936;DHT22;65881;52.438;16.744;2023-06-04T02:03:42;7.60;69.40
76936;DHT22;65881;52.438;16.744;2023-06-04T02:06:08;7.60;69.50
76936;DHT22;65881;52.438;16.744;2023-06-04T02:08:34;7.60;69.70
76936;DHT22;65881;52.438;16.744;2023-06-04T02:11:00;7.60;69.70
76936;DHT22;65881;52.438;16.744;2023-06-04T02:13:26;7.60;69.70
76936;DHT22;65881;52.438;16.744;2023-06-04T02:15:52;7.60;69.60
76936;DHT22;65881;52.438;16.744;2023-06-04T02:18:19;7.50;69.80
76936;DHT22;65881;52.438;16.744;2023-06-04T02:20:48;7.50;69.00
76936;DHT22;65881;52.438;16.744;2023-06-04T02:23:15;7.50;68.80
76936;DHT22;65881;52.438;16.744;2023-06-04T02:25:41;7.50;67.50
76936;DHT22;65881;52.438;16.744;2023-06-04T02:28:08;7.50;66.50
76936;DHT22;65881;52.438;16.744;2023-06-04T02:30:33;7.50;66.70
76936;DHT22;65881;52.438;16.744;2023-06-04T02:32:59;7.60;67.30
76936;DHT22;65881;52.438;16.744;2023-06-04T02:35:27;7.50;68.10
76936;DHT22;65881;52.438;16.744;2023-06-04T02:37:53;7.50;69.10
76936;DHT22;65881;52.438;16.744;2023-06-04T02:40:19;7.50;69.10
76936;DHT22;65881;52.438;16.744;2023-06-04T02:42:45;7.50;69.00
76936;DHT22;65881;52.438;16.744;2023-06-04T02:45:11;7.50;68.40
76936;DHT22;65881;52.438;16.744;2023-06-04T02:47:37;7.50;68.70
76936;DHT22;65881;52.438;16.744;2023-06-04T02:50:03;7.50;68.40
76936;DHT22;65881;52.438;16.744;2023-06-04T02:52:29;7.40;68.70
76936;DHT22;65881;52.438;16.744;2023-06-04T02:54:56;7.40;68.40
76936;DHT22;65881;52.438;16.744;2023-06-04T02:57:22;7.40;68.30
76936;DHT22;65881;52.438;16.744;2023-06-04T02:59:48;7.40;68.80
76936;DHT22;65881;52.438;16.744;2023-06-04T03:02:14;7.40;69.10
76936;DHT22;65881;52.438;16.744;2023-06-04T03:04:41;7.40;69.60
76936;DHT22;65881;52.438;16.744;2023-06-04T03:07:08;7.40;70.40
76936;DHT22;65881;52.438;16.744;2023-06-04T03:09:37;7.40;70.20
76936;DHT22;65881;52.438;16.744;2023-06-04T03:12:03;7.50;70.80
76936;DHT22;65881;52.438;16.744;2023-06-04T03:14:29;7.50;70.70
76936;DHT22;65881;52.438;16.744;2023-06-04T03:17:01;7.50;71.50
76936;DHT22;65881;52.438;16.744;2023-06-04T03:19:37;7.60;71.90
76936;DHT22;65881;52.438;16.744;2023-06-04T03:22:04;7.60;71.80
76936;DHT22;65881;52.438;16.744;2023-06-04T03:24:36;7.60;72.90
76936;DHT22;65881;52.438;16.744;2023-06-04T03:27:03;7.60;73.70
76936;DHT22;65881;52.438;16.744;2023-06-04T03:29:29;7.60;72.80
76936;DHT22;65881;52.438;16.744;2023-06-04T03:31:56;7.60;73.80
76936;DHT22;65881;52.438;16.744;2023-06-04T03:34:22;7.60;74.70
76936;DHT22;65881;52.438;16.744;2023-06-04T03:36:51;7.50;73.80
76936;DHT22;65881;52.438;16.744;2023-06-04T03:39:17;7.60;73.90
76936;DHT22;65881;52.438;16.744;2023-06-04T03:41:43;7.60;74.40
76936;DHT22;65881;52.438;16.744;2023-06-04T03:44:08;7.60;74.30
76936;DHT22;65881;52.438;16.744;2023-06-04T03:46:34;7.60;74.60
76936;DHT22;65881;52.438;16.744;2023-06-04T03:49:01;7.60;74.70
76936;DHT22;65881;52.438;16.744;2023-06-04T03:51:27;7.60;75.80
76936;DHT22;65881;52.438;16.744;2023-06-04T03:53:53;7.60;76.20
76936;DHT22;65881;52.438;16.744;2023-06-04T03:56:19;7.60;76.40
76936;DHT22;65881;52.438;16.744;2023-06-04T03:58:47;7.60;76.50
76936;DHT22;65881;52.438;16.744;2023-06-04T04:01:12;7.60;76.90
76936;DHT22;65881;52.438;16.744;2023-06-04T04:03:38;7.60;76.60
76936;DHT22;65881;52.438;16.744;2023-06-04T04:06:04;7.60;76.50
76936;DHT22;65881;52.438;16.744;2023-06-04T04:08:30;7.60;75.90
76936;DHT22;65881;52.438;16.744;2023-06-04T04:11:00;7.60;76.50
76936;DHT22;65881;52.438;16.744;2023-06-04T04:13:26;7.60;76.90
76936;DHT22;65881;52.438;16.744;2023-06-04T04:15:52;7.60;77.00
76936;DHT22;65881;52.438;16.744;2023-06-04T04:18:21;7.70;76.70
76936;DHT22;65881;52.438;16.744;2023-06-04T04:20:47;7.70;77.10
76936;DHT22;65881;52.438;16.744;2023-06-04T04:23:13;7.70;77.20
76936;DHT22;65881;52.438;16.744;2023-06-04T04:25:39;7.80;76.70
76936;DHT22;65881;52.438;16.744;2023-06-04T04:28:05;7.80;76.90
76936;DHT22;65881;52.438;16.744;2023-06-04T04:30:34;7.80;76.40
76936;DHT22;65881;52.438;16.744;2023-06-04T04:33:03;7.90;75.50
76936;DHT22;65881;52.438;16.744;2023-06-04T04:35:32;8.00;75.40
76936;DHT22;65881;52.438;16.744;2023-06-04T04:38:01;8.00;74.90
76936;DHT22;65881;52.438;16.744;2023-06-04T04:40:31;8.10;74.80
76936;DHT22;65881;52.438;16.744;2023-06-04T04:42:57;8.20;73.20
76936;DHT22;65881;52.438;16.744;2023-06-04T04:45:23;8.20;73.10
76936;DHT22;65881;52.438;16.744;2023-06-04T04:47:49;8.30;72.80
76936;DHT22;65881;52.438;16.744;2023-06-04T04:50:16;8.30;73.10
76936;DHT22;65881;52.438;16.744;2023-06-04T04:52:42;8.40;73.00
76936;DHT22;65881;52.438;16.744;2023-06-04T04:55:08;8.50;71.90
76936;DHT22;65881;52.438;16.744;2023-06-04T04:57:34;8.60;71.30
76936;DHT22;65881;52.438;16.744;2023-06-04T05:00:01;8.60;71.00
76936;DHT22;65881;52.438;16.744;2023-06-04T05:02:26;8.70;70.90
76936;DHT22;65881;52.438;16.744;2023-06-04T05:04:53;8.80;70.90
76936;DHT22;65881;52.438;16.744;2023-06-04T05:07:18;8.90;70.60
76936;DHT22;65881;52.438;16.744;2023-06-04T05:09:47;9.00;69.00
76936;DHT22;65881;52.438;16.744;2023-06-04T05:12:12;9.00;68.80
76936;DHT22;65881;52.438;16.744;2023-06-04T05:14:38;9.20;68.00
76936;DHT22;65881;52.438;16.744;2023-06-04T05:17:04;9.40;68.20
76936;DHT22;65881;52.438;16.744;2023-06-04T05:19:29;9.40;66.50
76936;DHT22;65881;52.438;16.744;2023-06-04T05:21:58;9.50;66.40
76936;DHT22;65881;52.438;16.744;2023-06-04T05:24:26;9.60;66.60
76936;DHT22;65881;52.438;16.744;2023-06-04T05:26:51;9.60;66.50
76936;DHT22;65881;52.438;16.744;2023-06-04T05:29:17;9.70;65.60
76936;DHT22;65881;52.438;16.744;2023-06-04T05:31:42;9.80;64.80
76936;DHT22;65881;52.438;16.744;2023-06-04T05:34:08;9.90;65.40
76936;DHT22;65881;52.438;16.744;2023-06-04T05:36:34;10.00;65.30
76936;DHT22;65881;52.438;16.744;2023-06-04T05:38:59;10.10;65.20
76936;DHT22;65881;52.438;16.744;2023-06-04T05:41:28;10.20;63.90
76936;DHT22;65881;52.438;16.744;2023-06-04T05:44:21;10.40;62.40
76936;DHT22;65881;52.438;16.744;2023-06-04T05:46:47;10.50;63.40
76936;DHT22;65881;52.438;16.744;2023-06-04T05:49:12;10.60;62.80
76936;DHT22;65881;52.438;16.744;2023-06-04T05:51:38;10.70;63.10
76936;DHT22;65881;52.438;16.744;2023-06-04T05:54:04;10.80;62.70
76936;DHT22;65881;52.438;16.744;2023-06-04T05:56:29;10.90;61.40
76936;DHT22;65881;52.438;16.744;2023-06-04T05:58:55;11.00;61.50
76936;DHT22;65881;52.438;16.744;2023-06-04T06:01:21;11.10;60.50
76936;DHT22;65881;52.438;16.744;2023-06-04T06:03:47;11.30;60.70
76936;DHT22;65881;52.438;16.744;2023-06-04T06:06:13;11.30;60.00
76936;DHT22;65881;52.438;16.744;2023-06-04T06:08:38;11.40;60.30
76936;DHT22;65881;52.438;16.744;2023-06-04T06:11:04;11.70;59.60
76936;DHT22;65881;52.438;16.744;2023-06-04T06:13:30;11.80;58.40
76936;DHT22;65881;52.438;16.744;2023-06-04T06:15:56;11.90;56.40
76936;DHT22;65881;52.438;16.744;2023-06-04T06:18:22;12.00;55.30
76936;DHT22;65881;52.438;16.744;2023-06-04T06:20:48;12.20;54.50
76936;DHT22;65881;52.438;16.744;2023-06-04T06:23:14;12.40;54.70
76936;DHT22;65881;52.438;16.744;2023-06-04T06:25:41;12.50;53.30
76936;DHT22;65881;52.438;16.744;2023-06-04T06:28:06;12.60;55.20
76936;DHT22;65881;52.438;16.744;2023-06-04T06:30:32;12.70;53.30
76936;DHT22;65881;52.438;16.744;2023-06-04T06:32:58;12.90;52.60
76936;DHT22;65881;52.438;16.744;2023-06-04T06:35:24;12.90;51.80
76936;DHT22;65881;52.438;16.744;2023-06-04T06:37:58;13.00;52.20
76936;DHT22;65881;52.438;16.744;2023-06-04T06:40:23;13.30;50.90
76936;DHT22;65881;52.438;16.744;2023-06-04T06:42:49;13.30;49.90
76936;DHT22;65881;52.438;16.744;2023-06-04T06:45:19;13.50;50.20
76936;DHT22;65881;52.438;16.744;2023-06-04T06:47:45;13.60;49.30
76936;DHT22;65881;52.438;16.744;2023-06-04T06:50:10;13.80;49.30
76936;DHT22;65881;52.438;16.744;2023-06-04T06:52:37;14.00;49.30
76936;DHT22;65881;52.438;16.744;2023-06-04T06:55:04;14.20;48.20
76936;DHT22;65881;52.438;16.744;2023-06-04T06:57:30;14.40;46.30
76936;DHT22;65881;52.438;16.744;2023-06-04T06:59:56;14.60;47.10
76936;DHT22;65881;52.438;16.744;2023-06-04T07:02:22;14.90;45.60
76936;DHT22;65881;52.438;16.744;2023-06-04T07:04:48;15.00;45.40
76936;DHT22;65881;52.438;16.744;2023-06-04T07:07:14;15.30;45.70
76936;DHT22;65881;52.438;16.744;2023-06-04T07:09:39;15.60;45.50
76936;DHT22;65881;52.438;16.744;2023-06-04T07:12:05;15.70;44.90
76936;DHT22;65881;52.438;16.744;2023-06-04T07:14:32;15.80;43.90
76936;DHT22;65881;52.438;16.744;2023-06-04T07:16:57;15.80;43.50
76936;DHT22;65881;52.438;16.744;2023-06-04T07:19:23;15.80;43.50
76936;DHT22;65881;52.438;16.744;2023-06-04T07:21:52;15.80;44.10
76936;DHT22;65881;52.438;16.744;2023-06-04T07:24:18;15.80;44.70
76936;DHT22;65881;52.438;16.744;2023-06-04T07:26:43;15.80;42.60
76936;DHT22;65881;52.438;16.744;2023-06-04T07:29:09;15.80;43.60
76936;DHT22;65881;52.438;16.744;2023-06-04T07:31:35;15.70;44.20
76936;DHT22;65881;52.438;16.744;2023-06-04T07:34:00;15.80;42.50
76936;DHT22;65881;52.438;16.744;2023-06-04T07:36:26;15.80;43.10
76936;DHT22;65881;52.438;16.744;2023-06-04T07:38:51;15.90;42.70
76936;DHT22;65881;52.438;16.744;2023-06-04T07:41:17;16.00;42.40
76936;DHT22;65881;52.438;16.744;2023-06-04T07:43:43;16.00;43.30
76936;DHT22;65881;52.438;16.744;2023-06-04T07:46:09;16.10;43.80
76936;DHT22;65881;52.438;16.744;2023-06-04T07:48:35;16.30;43.50
76936;DHT22;65881;52.438;16.744;2023-06-04T07:51:02;16.40;41.60
76936;DHT22;65881;52.438;16.744;2023-06-04T07:53:28;16.50;41.30
76936;DHT22;65881;52.438;16.744;2023-06-04T07:55:56;16.60;40.80
76936;DHT22;65881;52.438;16.744;2023-06-04T07:58:22;16.60;39.80
76936;DHT22;65881;52.438;16.744;2023-06-04T08:00:48;16.60;40.30
76936;DHT22;65881;52.438;16.744;2023-06-04T08:03:14;16.70;39.80
76936;DHT22;65881;52.438;16.744;2023-06-04T08:05:43;16.90;40.90
76936;DHT22;65881;52.438;16.744;2023-06-04T08:08:09;16.90;41.40
76936;DHT22;65881;52.438;16.744;2023-06-04T08:10:34;17.00;41.90
76936;DHT22;65881;52.438;16.744;2023-06-04T08:13:00;16.90;41.10
76936;DHT22;65881;52.438;16.744;2023-06-04T08:15:26;16.90;40.00
76936;DHT22;65881;52.438;16.744;2023-06-04T08:17:51;17.00;40.60
76936;DHT22;65881;52.438;16.744;2023-06-04T08:20:17;17.00;39.10
76936;DHT22;65881;52.438;16.744;2023-06-04T08:22:43;17.20;38.30
76936;DHT22;65881;52.438;16.744;2023-06-04T08:25:09;17.30;38.80
76936;DHT22;65881;52.438;16.744;2023-06-04T08:27:35;17.40;37.00
76936;DHT22;65881;52.438;16.744;2023-06-04T08:30:01;17.50;37.50
76936;DHT22;65881;52.438;16.744;2023-06-04T08:32:27;17.60;37.60
76936;DHT22;65881;52.438;16.744;2023-06-04T08:34:53;17.80;37.10
76936;DHT22;65881;52.438;16.744;2023-06-04T08:37:20;17.90;35.50
76936;DHT22;65881;52.438;16.744;2023-06-04T08:39:46;18.00;36.70
76936;DHT22;65881;52.438;16.744;2023-06-04T08:42:34;18.00;37.50
76936;DHT22;65881;52.438;16.744;2023-06-04T08:45:04;18.40;37.10
76936;DHT22;65881;52.438;16.744;2023-06-04T08:47:32;18.50;37.70
76936;DHT22;65881;52.438;16.744;2023-06-04T08:50:02;18.50;38.00
76936;DHT22;65881;52.438;16.744;2023-06-04T08:52:30;18.50;35.80
76936;DHT22;65881;52.438;16.744;2023-06-04T08:54:56;18.80;35.80
76936;DHT22;65881;52.438;16.744;2023-06-04T08:57:22;18.90;36.80
76936;DHT22;65881;52.438;16.744;2023-06-04T08:59:48;19.10;37.30
76936;DHT22;65881;52.438;16.744;2023-06-04T09:02:16;19.10;36.40
76936;DHT22;65881;52.438;16.744;2023-06-04T09:04:42;19.40;37.00
76936;DHT22;65881;52.438;16.744;2023-06-04T09:07:10;19.70;35.90
76936;DHT22;65881;52.438;16.744;2023-06-04T09:09:40;20.10;33.60
76936;DHT22;65881;52.438;16.744;2023-06-04T09:12:21;20.50;32.90
76936;DHT22;65881;52.438;16.744;2023-06-04T09:14:48;20.70;33.00
76936;DHT22;65881;52.438;16.744;2023-06-04T09:17:23;20.50;31.20
76936;DHT22;65881;52.438;16.744;2023-06-04T09:19:50;20.80;33.00
76936;DHT22;65881;52.438;16.744;2023-06-04T09:22:15;20.80;31.50
76936;DHT22;65881;52.438;16.744;2023-06-04T09:24:45;21.30;31.10
76936;DHT22;65881;52.438;16.744;2023-06-04T09:27:19;21.50;32.90
76936;DHT22;65881;52.438;16.744;2023-06-04T09:29:54;21.50;32.70
76936;DHT22;65881;52.438;16.744;2023-06-04T09:32:30;21.50;31.60
76936;DHT22;65881;52.438;16.744;2023-06-04T09:35:08;21.60;32.20
76936;DHT22;65881;52.438;16.744;2023-06-04T09:37:37;21.70;31.10
76936;DHT22;65881;52.438;16.744;2023-06-04T09:40:03;21.70;31.80
76936;DHT22;65881;52.438;16.744;2023-06-04T09:42:30;22.20;31.10
76936;DHT22;65881;52.438;16.744;2023-06-04T09:45:07;22.10;30.70
76936;DHT22;65881;52.438;16.744;2023-06-04T09:47:43;22.20;30.90
76936;DHT22;65881;52.438;16.744;2023-06-04T09:50:10;22.60;30.30
76936;DHT22;65881;52.438;16.744;2023-06-04T09:52:36;23.30;30.00
76936;DHT22;65881;52.438;16.744;2023-06-04T09:55:03;23.40;28.90
76936;DHT22;65881;52.438;16.744;2023-06-04T09:57:29;23.20;30.70
76936;DHT22;65881;52.438;16.744;2023-06-04T09:59:57;23.50;29.00
76936;DHT22;65881;52.438;16.744;2023-06-04T10:02:51;23.80;28.70
76936;DHT22;65881;52.438;16.744;2023-06-04T10:05:19;23.60;28.50
76936;DHT22;65881;52.438;16.744;2023-06-04T10:07:49;23.80;29.40
76936;DHT22;65881;52.438;16.744;2023-06-04T10:10:19;24.20;27.60
76936;DHT22;65881;52.438;16.744;2023-06-04T10:13:00;24.00;28.70
76936;DHT22;65881;52.438;16.744;2023-06-04T10:15:31;24.30;28.60
76936;DHT22;65881;52.438;16.744;2023-06-04T10:17:59;24.40;27.30
76936;DHT22;65881;52.438;16.744;2023-06-04T10:20:27;24.30;28.70
76936;DHT22;65881;52.438;16.744;2023-06-04T10:22:54;24.50;28.10
76936;DHT22;65881;52.438;16.744;2023-06-04T10:25:23;24.00;28.20
76936;DHT22;65881;52.438;16.744;2023-06-04T10:27:51;23.80;27.40
76936;DHT22;65881;52.438;16.744;2023-06-04T10:30:24;24.00;28.20
76936;DHT22;65881;52.438;16.744;2023-06-04T10:33:03;24.20;27.90
76936;DHT22;65881;52.438;16.744;2023-06-04T10:35:36;24.00;29.70
76936;DHT22;65881;52.438;16.744;2023-06-04T10:38:09;24.00;29.80
76936;DHT22;65881;52.438;16.744;2023-06-04T10:40:36;24.20;29.00
76936;DHT22;65881;52.438;16.744;2023-06-04T10:43:12;24.30;28.70
76936;DHT22;65881;52.438;16.744;2023-06-04T10:45:44;24.50;27.90
76936;DHT22;65881;52.438;16.744;2023-06-04T10:48:11;24.70;28.00
76936;DHT22;65881;52.438;16.744;2023-06-04T10:50:51;24.50;27.20
76936;DHT22;65881;52.438;16.744;2023-06-04T10:53:20;24.40;27.80
76936;DHT22;65881;52.438;16.744;2023-06-04T10:55:48;24.40;27.30
76936;DHT22;65881;52.438;16.744;2023-06-04T10:58:14;24.40;27.80
76936;DHT22;65881;52.438;16.744;2023-06-04T11:00:45;24.40;25.30
76936;DHT22;65881;52.438;16.744;2023-06-04T11:03:16;24.30;26.20
76936;DHT22;65881;52.438;16.744;2023-06-04T11:05:44;24.40;27.30
76936;DHT22;65881;52.438;16.744;2023-06-04T11:08:35;24.60;26.50
76936;DHT22;65881;52.438;16.744;2023-06-04T11:11:16;24.50;26.70
76936;DHT22;65881;52.438;16.744;2023-06-04T11:13:50;24.70;26.20
76936;DHT22;65881;52.438;16.744;2023-06-04T11:16:23;24.20;27.20
76936;DHT22;65881;52.438;16.744;2023-06-04T11:18:58;23.90;28.40
76936;DHT22;65881;52.438;16.744;2023-06-04T11:21:29;24.00;27.90
76936;DHT22;65881;52.438;16.744;2023-06-04T11:23:58;23.40;29.00
76936;DHT22;65881;52.438;16.744;2023-06-04T11:26:34;23.60;28.70
76936;DHT22;65881;52.438;16.744;2023-06-04T11:29:01;24.20;27.80
76936;DHT22;65881;52.438;16.744;2023-06-04T11:31:27;24.00;28.50
76936;DHT22;65881;52.438;16.744;2023-06-04T11:33:53;23.90;29.00
76936;DHT22;65881;52.438;16.744;2023-06-04T11:36:29;24.20;26.70
76936;DHT22;65881;52.438;16.744;2023-06-04T11:39:02;24.50;27.10
76936;DHT22;65881;52.438;16.744;2023-06-04T11:41:43;24.90;27.70
76936;DHT22;65881;52.438;16.744;2023-06-04T11:44:09;24.20;29.20
76936;DHT22;65881;52.438;16.744;2023-06-04T11:46:44;24.30;26.60
76936;DHT22;65881;52.438;16.744;2023-06-04T11:49:16;24.60;26.80
76936;DHT22;65881;52.438;16.744;2023-06-04T11:51:50;24.70;26.40
76936;DHT22;65881;52.438;16.744;2023-06-04T11:54:17;24.60;27.10
76936;DHT22;65881;52.438;16.744;2023-06-04T11:56:55;24.70;25.20
76936;DHT22;65881;52.438;16.744;2023-06-04T11:59:21;24.70;26.20
76936;DHT22;65881;52.438;16.744;2023-06-04T12:01:47;24.50;27.40
76936;DHT22;65881;52.438;16.744;2023-06-04T12:04:15;24.70;26.60
76936;DHT22;65881;52.438;16.744;2023-06-04T12:06:56;24.60;26.30
76936;DHT22;65881;52.438;16.744;2023-06-04T12:09:24;24.60;26.70
76936;DHT22;65881;52.438;16.744;2023-06-04T12:11:58;24.80;27.30
76936;DHT22;65881;52.438;16.744;2023-06-04T12:14:27;25.00;28.00
76936;DHT22;65881;52.438;16.744;2023-06-04T12:17:06;25.10;26.80
76936;DHT22;65881;52.438;16.744;2023-06-04T12:19:33;25.30;26.50
76936;DHT22;65881;52.438;16.744;2023-06-04T12:24:46;24.50;27.30
76936;DHT22;65881;52.438;16.744;2023-06-04T12:27:13;24.20;27.40
76936;DHT22;65881;52.438;16.744;2023-06-04T12:29:38;24.50;27.40
76936;DHT22;65881;52.438;16.744;2023-06-04T12:32:06;24.50;26.60
76936;DHT22;65881;52.438;16.744;2023-06-04T12:34:40;24.60;26.50
76936;DHT22;65881;52.438;16.744;2023-06-04T12:37:12;24.50;25.70
76936;DHT22;65881;52.438;16.744;2023-06-04T12:39:40;24.10;26.40
76936;DHT22;65881;52.438;16.744;2023-06-04T12:42:06;24.20;27.60
76936;DHT22;65881;52.438;16.744;2023-06-04T12:44:38;24.50;27.50
76936;DHT22;65881;52.438;16.744;2023-06-04T12:47:04;24.70;27.10
76936;DHT22;65881;52.438;16.744;2023-06-04T12:49:30;24.70;28.00
76936;DHT22;65881;52.438;16.744;2023-06-04T12:51:56;24.80;26.90
76936;DHT22;65881;52.438;16.744;2023-06-04T12:54:22;24.90;25.70
76936;DHT22;65881;52.438;16.744;2023-06-04T12:56:50;25.00;26.50
76936;DHT22;65881;52.438;16.744;2023-06-04T12:59:16;25.00;25.50
76936;DHT22;65881;52.438;16.744;2023-06-04T13:01:42;24.70;26.40
76936;DHT22;65881;52.438;16.744;2023-06-04T13:04:09;24.40;25.80
76936;DHT22;65881;52.438;16.744;2023-06-04T13:06:38;24.40;26.40
76936;DHT22;65881;52.438;16.744;2023-06-04T13:09:04;24.40;25.70
76936;DHT22;65881;52.438;16.744;2023-06-04T13:11:46;24.40;26.60
76936;DHT22;65881;52.438;16.744;2023-06-04T13:14:12;24.20;26.80
76936;DHT22;65881;52.438;16.744;2023-06-04T13:16:38;24.20;27.20
76936;DHT22;65881;52.438;16.744;2023-06-04T13:19:05;24.00;28.50
76936;DHT22;65881;52.438;16.744;2023-06-04T13:21:30;23.80;28.60
76936;DHT22;65881;52.438;16.744;2023-06-04T13:23:56;23.60;30.40
76936;DHT22;65881;52.438;16.744;2023-06-04T13:26:22;23.80;28.50
76936;DHT22;65881;52.438;16.744;2023-06-04T13:28:48;23.90;28.40
76936;DHT22;65881;52.438;16.744;2023-06-04T13:31:16;24.30;28.00
76936;DHT22;65881;52.438;16.744;2023-06-04T13:33:42;24.40;27.20
76936;DHT22;65881;52.438;16.744;2023-06-04T13:36:12;24.50;26.70
76936;DHT22;65881;52.438;16.744;2023-06-04T13:38:37;24.40;27.60
76936;DHT22;65881;52.438;16.744;2023-06-04T13:41:03;23.80;29.70
76936;DHT22;65881;52.438;16.744;2023-06-04T13:43:31;23.60;28.30
76936;DHT22;65881;52.438;16.744;2023-06-04T13:46:03;23.50;26.60
76936;DHT22;65881;52.438;16.744;2023-06-04T13:48:28;23.40;28.00
76936;DHT22;65881;52.438;16.744;2023-06-04T13:50:54;23.40;29.40
76936;DHT22;65881;52.438;16.744;2023-06-04T13:53:19;23.40;27.60
76936;DHT22;65881;52.438;16.744;2023-06-04T13:55:45;23.60;28.20
76936;DHT22;65881;52.438;16.744;2023-06-04T13:58:14;23.50;28.10
76936;DHT22;65881;52.438;16.744;2023-06-04T14:00:40;23.50;28.50
76936;DHT22;65881;52.438;16.744;2023-06-04T14:03:06;23.60;28.70
76936;DHT22;65881;52.438;16.744;2023-06-04T14:05:32;23.60;28.00
76936;DHT22;65881;52.438;16.744;2023-06-04T14:07:57;23.80;28.90
76936;DHT22;65881;52.438;16.744;2023-06-04T14:10:23;23.70;27.90
76936;DHT22;65881;52.438;16.744;2023-06-04T14:12:49;23.50;28.00
76936;DHT22;65881;52.438;16.744;2023-06-04T14:15:25;23.50;26.80
76936;DHT22;65881;52.438;16.744;2023-06-04T14:17:51;23.50;26.40
76936;DHT22;65881;52.438;16.744;2023-06-04T14:20:17;23.20;28.80
76936;DHT22;65881;52.438;16.744;2023-06-04T14:22:42;23.30;27.50
76936;DHT22;65881;52.438;16.744;2023-06-04T14:25:08;23.40;27.90
76936;DHT22;65881;52.438;16.744;2023-06-04T14:27:35;23.10;29.50
76936;DHT22;65881;52.438;16.744;2023-06-04T14:30:04;23.10;29.90
76936;DHT22;65881;52.438;16.744;2023-06-04T14:32:30;22.90;28.60
76936;DHT22;65881;52.438;16.744;2023-06-04T14:34:57;23.10;27.40
76936;DHT22;65881;52.438;16.744;2023-06-04T14:37:23;23.00;28.50
76936;DHT22;65881;52.438;16.744;2023-06-04T14:39:48;22.90;27.70
76936;DHT22;65881;52.438;16.744;2023-06-04T14:42:15;23.00;28.90
76936;DHT22;65881;52.438;16.744;2023-06-04T14:44:41;23.00;29.30
76936;DHT22;65881;52.438;16.744;2023-06-04T14:47:06;22.80;28.10
76936;DHT22;65881;52.438;16.744;2023-06-04T14:49:32;23.00;28.70
76936;DHT22;65881;52.438;16.744;2023-06-04T14:51:58;23.00;27.80
76936;DHT22;65881;52.438;16.744;2023-06-04T14:54:24;23.00;29.30
76936;DHT22;65881;52.438;16.744;2023-06-04T14:56:49;23.10;29.10
76936;DHT22;65881;52.438;16.744;2023-06-04T14:59:15;22.90;28.70
76936;DHT22;65881;52.438;16.744;2023-06-04T15:01:41;23.00;27.50
76936;DHT22;65881;52.438;16.744;2023-06-04T15:04:07;23.10;28.50
76936;DHT22;65881;52.438;16.744;2023-06-04T15:06:33;23.10;29.30
76936;DHT22;65881;52.438;16.744;2023-06-04T15:08:59;23.00;28.60
76936;DHT22;65881;52.438;16.744;2023-06-04T15:11:25;23.00;28.90
76936;DHT22;65881;52.438;16.744;2023-06-04T15:13:58;22.90;28.10
76936;DHT22;65881;52.438;16.744;2023-06-04T15:16:23;22.80;28.80
76936;DHT22;65881;52.438;16.744;2023-06-04T15:18:49;22.80;28.50
76936;DHT22;65881;52.438;16.744;2023-06-04T15:21:15;22.70;28.70
76936;DHT22;65881;52.438;16.744;2023-06-04T15:23:43;22.70;29.00
76936;DHT22;65881;52.438;16.744;2023-06-04T15:26:14;22.80;29.10
76936;DHT22;65881;52.438;16.744;2023-06-04T15:28:39;22.70;27.60
76936;DHT22;65881;52.438;16.744;2023-06-04T15:31:05;22.70;27.90
76936;DHT22;65881;52.438;16.744;2023-06-04T15:33:31;22.60;28.40
76936;DHT22;65881;52.438;16.744;2023-06-04T15:35:57;22.60;29.60